createdAt,value
2023-02-04T00:00:34.730Z,0.60
2023-02-04T00:03:01.632Z,0.10
2023-02-04T00:05:28.505Z,-0.10
2023-02-04T00:10:22.710Z,0.10
2023-02-04T00:12:49.517Z,0.10
2023-02-04T00:15:16.395Z,1.00
2023-02-04T00:17:43.304Z,0.00
2023-02-04T00:20:11.699Z,0.60
2023-02-04T00:22:38.618Z,0.00
2023-02-04T00:25:05.898Z,0.00
2023-02-04T00:27:36.054Z,-0.10
2023-02-04T00:30:04.464Z,-0.50
2023-02-04T00:32:31.409Z,-0.10
2023-02-04T00:34:58.909Z,-0.20
2023-02-04T00:37:25.886Z,-0.10
2023-02-04T00:39:52.692Z,1.00
2023-02-04T00:42:19.670Z,0.10
2023-02-04T00:44:46.580Z,-0.20
2023-02-04T00:47:13.467Z,0.00
2023-02-04T00:49:40.452Z,0.80
2023-02-04T00:52:07.476Z,0.00
2023-02-04T00:54:38.602Z,1.40
2023-02-04T00:57:05.459Z,-0.30
2023-02-04T00:59:32.349Z,-0.30
2023-02-04T01:02:00.341Z,-0.30
2023-02-04T01:04:28.394Z,-0.20
2023-02-04T01:06:55.485Z,0.80
2023-02-04T01:09:22.412Z,1.20
2023-02-04T01:11:49.362Z,-0.40
2023-02-04T01:14:16.794Z,-0.40
2023-02-04T01:16:43.730Z,-0.40
2023-02-04T01:19:10.586Z,-0.70
2023-02-04T01:21:38.451Z,-0.40
2023-02-04T01:24:06.007Z,-0.40
2023-02-04T01:26:32.844Z,-0.40
2023-02-04T01:28:59.782Z,0.10
2023-02-04T01:31:27.096Z,-0.40
2023-02-04T01:33:53.899Z,-0.40
2023-02-04T01:36:21.954Z,0.40
2023-02-04T01:38:49.596Z,0.50
2023-02-04T01:41:18.426Z,-0.40
2023-02-04T01:43:47.335Z,-0.40
2023-02-04T01:46:15.345Z,-0.40
2023-02-04T01:48:42.576Z,-0.40
2023-02-04T01:51:16.391Z,-0.30
2023-02-04T01:53:43.913Z,-0.40
2023-02-04T01:56:20.259Z,-0.40
2023-02-04T01:58:48.435Z,0.40
2023-02-04T02:01:33.894Z,-0.20
2023-02-04T02:04:01.443Z,-0.30
2023-02-04T02:06:28.948Z,-0.40
2023-02-04T02:08:59.201Z,-0.40
2023-02-04T02:11:27.851Z,-0.40
2023-02-04T02:13:55.429Z,0.40
2023-02-04T02:16:22.508Z,-0.40
2023-02-04T02:18:49.543Z,0.80
2023-02-04T02:21:32.667Z,-0.40
2023-02-04T02:24:01.170Z,-0.70
2023-02-04T02:26:28.363Z,-0.50
2023-02-04T02:28:55.515Z,-0.40
2023-02-04T02:31:23.501Z,-0.40
2023-02-04T02:33:50.682Z,-0.30
2023-02-04T02:36:17.907Z,-0.40
2023-02-04T02:38:44.927Z,-0.40
2023-02-04T02:41:11.872Z,0.10
2023-02-04T02:43:39.143Z,-0.40
2023-02-04T02:46:06.961Z,-0.40
2023-02-04T02:48:33.917Z,-0.40
2023-02-04T02:51:00.980Z,-0.40
2023-02-04T02:53:28.033Z,-0.40
2023-02-04T02:55:54.889Z,-0.40
2023-02-04T02:58:36.379Z,-0.40
2023-02-04T03:01:06.453Z,-0.40
2023-02-04T03:03:36.673Z,-0.30
2023-02-04T03:06:23.124Z,-0.40
2023-02-04T03:08:55.567Z,-0.30
2023-02-04T03:11:23.341Z,-0.30
2023-02-04T03:13:51.926Z,-0.40
2023-02-04T03:16:19.807Z,-0.30
2023-02-04T03:18:47.607Z,0.30
2023-02-04T03:21:14.772Z,-0.30
2023-02-04T03:23:42.000Z,-0.30
2023-02-04T03:26:09.082Z,0.40
2023-02-04T03:28:41.150Z,-0.30
2023-02-04T03:31:09.572Z,0.30
2023-02-04T03:33:36.708Z,-0.30
2023-02-04T03:36:03.948Z,-0.30
2023-02-04T03:38:34.493Z,-0.30
2023-02-04T03:41:03.077Z,-0.30
2023-02-04T03:43:34.077Z,-0.40
2023-02-04T03:46:01.363Z,-0.40
2023-02-04T03:48:30.632Z,-0.40
2023-02-04T03:50:59.664Z,-0.40
2023-02-04T03:53:33.928Z,0.20
2023-02-04T03:56:00.960Z,-0.40
2023-02-04T03:58:28.583Z,-0.40
2023-02-04T04:00:56.282Z,-0.40
2023-02-04T04:03:23.229Z,-0.40
2023-02-04T04:05:51.178Z,-0.40
2023-02-04T04:08:19.245Z,-0.40
2023-02-04T04:10:46.417Z,-0.40
2023-02-04T04:13:15.661Z,-0.40
2023-02-04T04:15:42.740Z,-0.40
2023-02-04T04:18:11.862Z,-0.50
2023-02-04T04:20:39.014Z,-0.50
2023-02-04T04:23:08.124Z,-0.10
2023-02-04T04:25:35.129Z,-0.40
2023-02-04T04:28:04.294Z,-0.60
2023-02-04T04:30:31.527Z,-0.60
2023-02-04T04:32:59.617Z,-0.70
2023-02-04T04:35:28.652Z,-0.70
2023-02-04T04:37:55.764Z,-0.80
2023-02-04T04:40:28.806Z,-0.80
2023-02-04T04:42:57.160Z,-0.80
2023-02-04T04:45:25.520Z,-0.80
2023-02-04T04:47:52.481Z,-0.90
2023-02-04T04:50:19.755Z,-0.90
2023-02-04T04:52:48.989Z,-0.90
2023-02-04T04:55:16.093Z,-0.90
2023-02-04T04:57:45.187Z,-0.90
2023-02-04T05:00:16.747Z,-0.90
2023-02-04T05:02:43.994Z,-0.90
2023-02-04T05:05:11.996Z,-0.90
2023-02-04T05:07:39.325Z,-0.90
2023-02-04T05:10:06.692Z,0.70
2023-02-04T05:12:33.606Z,-0.90
2023-02-04T05:15:00.759Z,-0.90
2023-02-04T05:17:28.781Z,-0.90
2023-02-04T05:19:56.126Z,-0.90
2023-02-04T05:22:23.003Z,-0.90
2023-02-04T05:24:50.009Z,-0.50
2023-02-04T05:27:18.450Z,-0.80
2023-02-04T05:29:46.472Z,-0.80
2023-02-04T05:32:13.645Z,-0.70
2023-02-04T05:34:40.855Z,-0.70
2023-02-04T05:37:08.879Z,-0.70
2023-02-04T05:39:35.920Z,-0.60
2023-02-04T05:42:03.216Z,-0.20
2023-02-04T05:44:30.419Z,-0.70
2023-02-04T05:46:57.322Z,0.50
2023-02-04T05:49:24.908Z,-0.60
2023-02-04T05:51:51.849Z,-0.60
2023-02-04T05:54:20.912Z,-0.60
2023-02-04T05:56:48.250Z,-0.60
2023-02-04T05:59:22.178Z,-0.90
2023-02-04T06:01:52.250Z,-0.60
2023-02-04T06:04:20.571Z,-0.80
2023-02-04T06:06:48.684Z,1.40
2023-02-04T06:09:16.012Z,-0.70
2023-02-04T06:11:43.918Z,0.40
2023-02-04T06:14:11.603Z,0.20
2023-02-04T06:16:38.599Z,-0.70
2023-02-04T06:19:05.719Z,-0.70
2023-02-04T06:21:34.701Z,1.00
2023-02-04T06:24:03.552Z,-0.80
2023-02-04T06:26:31.676Z,-0.80
2023-02-04T06:29:04.998Z,-0.90
2023-02-04T06:31:38.576Z,-0.90
2023-02-04T06:34:12.972Z,-0.90
2023-02-04T06:36:42.208Z,-1.00
2023-02-04T06:41:37.791Z,-1.10
2023-02-04T06:44:04.891Z,-1.00
2023-02-04T06:46:47.997Z,-1.10
2023-02-04T06:49:15.220Z,-0.30
2023-02-04T06:51:42.251Z,-1.30
2023-02-04T06:54:09.408Z,-1.30
2023-02-04T06:56:36.607Z,-1.60
2023-02-04T06:59:04.641Z,-1.60
2023-02-04T07:01:33.944Z,-1.60
2023-02-04T07:04:01.087Z,-1.60
2023-02-04T07:06:28.067Z,-1.60
2023-02-04T07:08:55.151Z,-1.60
2023-02-04T07:11:22.306Z,-1.80
2023-02-04T07:16:16.413Z,-1.60
2023-02-04T07:21:10.568Z,-1.60
2023-02-04T07:23:37.535Z,-1.70
2023-02-04T07:28:31.700Z,-1.80
2023-02-04T07:30:58.660Z,-1.80
2023-02-04T07:33:27.844Z,-1.80
2023-02-04T07:35:54.750Z,-1.60
2023-02-04T07:38:23.673Z,-1.70
2023-02-04T07:40:50.598Z,-1.70
2023-02-04T07:43:19.517Z,-1.60
2023-02-04T07:45:47.682Z,0.80
2023-02-04T07:48:14.820Z,-1.60
2023-02-04T07:50:41.964Z,-1.00
2023-02-04T07:53:11.055Z,-1.60
2023-02-04T07:55:38.131Z,-1.60
2023-02-04T07:58:06.279Z,-1.50
2023-02-04T08:00:33.750Z,-1.70
2023-02-04T08:03:00.813Z,-1.50
2023-02-04T08:05:27.882Z,-2.00
2023-02-04T08:07:54.892Z,-1.30
2023-02-04T08:10:22.970Z,-1.40
2023-02-04T08:12:57.948Z,-1.40
2023-02-04T08:15:24.784Z,-1.60
2023-02-04T08:17:51.685Z,-1.40
2023-02-04T08:20:18.911Z,-1.40
2023-02-04T08:22:46.041Z,-1.30
2023-02-04T08:25:13.281Z,-1.30
2023-02-04T08:27:40.517Z,-1.10
2023-02-04T08:30:08.541Z,-0.20
2023-02-04T08:32:36.781Z,-1.20
2023-02-04T08:35:06.541Z,-1.20
2023-02-04T08:37:39.282Z,-1.10
2023-02-04T08:40:07.298Z,-1.20
2023-02-04T08:45:02.040Z,-1.90
2023-02-04T08:47:29.210Z,-1.20
2023-02-04T08:49:56.267Z,-1.30
2023-02-04T08:52:24.346Z,-0.50
2023-02-04T08:54:51.175Z,-1.20
2023-02-04T08:57:18.108Z,-1.20
2023-02-04T08:59:46.348Z,-1.10
2023-02-04T09:02:13.409Z,-1.10
2023-02-04T09:04:40.519Z,-1.10
2023-02-04T09:07:07.400Z,-1.00
2023-02-04T09:09:34.607Z,-0.40
2023-02-04T09:12:02.015Z,-0.90
2023-02-04T09:14:30.113Z,-0.50
2023-02-04T09:16:57.264Z,-0.90
2023-02-04T09:19:25.673Z,1.40
2023-02-04T09:21:55.566Z,-0.90
2023-02-04T09:24:23.822Z,-1.10
2023-02-04T09:26:50.707Z,-0.80
2023-02-04T09:29:17.576Z,-0.90
2023-02-04T09:34:11.779Z,-0.80
2023-02-04T09:36:39.184Z,0.20
2023-02-04T09:39:07.432Z,0.20
2023-02-04T09:41:35.100Z,0.10
2023-02-04T09:44:04.067Z,-0.30
2023-02-04T09:46:32.142Z,-1.00
2023-02-04T09:48:59.853Z,-1.10
2023-02-04T09:51:32.940Z,-0.80
2023-02-04T09:54:21.071Z,-1.00
2023-02-04T09:56:48.397Z,-1.10
2023-02-04T09:59:18.239Z,-1.10
2023-02-04T10:01:46.217Z,-1.10
2023-02-04T10:04:15.261Z,-1.10
2023-02-04T10:06:44.137Z,-1.20
2023-02-04T10:09:15.988Z,-1.20
2023-02-04T10:11:43.804Z,-1.40
2023-02-04T10:14:19.594Z,-1.30
2023-02-04T10:16:59.257Z,-1.30
2023-02-04T10:19:29.012Z,-1.20
2023-02-04T10:21:56.385Z,-1.60
2023-02-04T10:24:27.247Z,-1.40
2023-02-04T10:26:54.910Z,-1.40
2023-02-04T10:29:25.870Z,0.40
2023-02-04T10:31:53.436Z,-1.30
2023-02-04T10:34:23.608Z,-1.30
2023-02-04T10:36:57.838Z,-1.30
2023-02-04T10:39:28.231Z,-1.30
2023-02-04T10:42:00.536Z,-1.20
2023-02-04T10:44:36.012Z,-1.20
2023-02-04T10:47:07.177Z,-1.20
2023-02-04T10:49:36.671Z,-1.20
2023-02-04T10:52:16.565Z,-1.40
2023-02-04T10:54:44.647Z,-1.20
2023-02-04T10:57:26.407Z,-1.10
2023-02-04T11:00:05.330Z,-1.60
2023-02-04T11:02:49.178Z,-1.40
2023-02-04T11:05:23.690Z,-1.40
2023-02-04T11:07:51.484Z,-1.40
2023-02-04T11:10:25.161Z,-1.30
2023-02-04T11:12:55.186Z,-1.30
2023-02-04T11:15:42.434Z,-1.20
2023-02-04T11:18:25.475Z,-1.60
2023-02-04T11:20:55.590Z,-1.10
2023-02-04T11:23:30.065Z,-1.10
2023-02-04T11:26:17.318Z,-1.10
2023-02-04T11:28:59.776Z,-0.80
2023-02-04T11:31:27.066Z,-1.10
2023-02-04T11:34:25.858Z,-1.10
2023-02-04T11:37:18.618Z,-1.30
2023-02-04T11:39:48.612Z,-1.00
2023-02-04T11:42:59.653Z,-1.00
2023-02-04T11:45:35.075Z,-0.90
2023-02-04T11:48:11.859Z,-1.00
2023-02-04T11:50:39.357Z,-0.90
2023-02-04T11:53:06.540Z,-0.80
2023-02-04T11:55:47.818Z,-0.70
2023-02-04T11:58:18.225Z,-0.60
2023-02-04T12:00:45.937Z,-0.60
2023-02-04T12:03:24.652Z,-0.50
2023-02-04T12:05:54.956Z,-0.50
2023-02-04T12:08:24.601Z,-0.40
2023-02-04T12:11:01.183Z,-0.50
2023-02-04T12:13:30.635Z,-0.40
2023-02-04T12:16:04.497Z,-0.40
2023-02-04T12:18:33.607Z,-0.40
2023-02-04T12:21:02.032Z,-0.50
2023-02-04T12:23:30.078Z,-0.50
2023-02-04T12:25:57.761Z,-0.50
2023-02-04T12:28:26.119Z,-0.40
2023-02-04T12:30:53.208Z,-0.40
2023-02-04T12:33:20.820Z,-0.40
2023-02-04T12:35:48.167Z,-0.30
2023-02-04T12:38:15.568Z,-0.40
2023-02-04T12:40:42.555Z,-0.40
2023-02-04T12:43:10.194Z,-0.50
2023-02-04T12:45:38.273Z,-0.40
2023-02-04T12:48:05.327Z,-0.40
2023-02-04T12:50:32.333Z,-0.40
2023-02-04T12:53:00.034Z,-0.30
2023-02-04T12:55:29.652Z,-0.30
2023-02-04T12:57:56.615Z,-0.20
2023-02-04T13:00:24.525Z,-0.20
2023-02-04T13:02:51.512Z,-0.20
2023-02-04T13:05:18.684Z,-0.20
2023-02-04T13:07:49.982Z,-0.20
2023-02-04T13:10:18.218Z,-0.20
2023-02-04T13:12:45.069Z,-0.20
2023-02-04T13:15:12.030Z,-0.10
2023-02-04T13:17:38.920Z,-0.10
2023-02-04T13:20:06.233Z,0.60
2023-02-04T13:22:33.108Z,-0.10
2023-02-04T13:25:00.035Z,0.30
2023-02-04T13:27:28.053Z,-0.10
2023-02-04T13:29:54.964Z,-0.20
2023-02-04T13:32:21.976Z,0.30
2023-02-04T13:34:48.912Z,-0.10
2023-02-04T13:37:19.994Z,-0.20
2023-02-04T13:39:46.906Z,-0.20
2023-02-04T13:42:13.857Z,-0.20
2023-02-04T13:44:40.896Z,-0.20
2023-02-04T13:47:07.875Z,-0.20
2023-02-04T13:49:34.896Z,-0.20
2023-02-04T13:52:01.821Z,-0.20
2023-02-04T13:54:28.713Z,-0.10
2023-02-04T13:56:55.592Z,-0.10
2023-02-04T13:59:22.486Z,0.00
2023-02-04T14:01:49.450Z,0.00
2023-02-04T14:04:16.722Z,0.00
2023-02-04T14:06:43.857Z,0.00
2023-02-04T14:09:12.290Z,-0.10
2023-02-04T14:11:40.160Z,-0.20
2023-02-04T14:14:07.913Z,-0.20
2023-02-04T14:16:36.955Z,-0.30
2023-02-04T14:19:05.294Z,-0.40
2023-02-04T14:21:32.422Z,-0.40
2023-02-04T14:23:59.507Z,-0.50
2023-02-04T14:26:26.491Z,-0.60
2023-02-04T14:28:53.346Z,-0.60
2023-02-04T14:31:20.558Z,-0.70
2023-02-04T14:33:49.850Z,-0.80
2023-02-04T14:36:17.100Z,-0.80
2023-02-04T14:38:44.169Z,-0.90
2023-02-04T14:41:16.206Z,-0.90
2023-02-04T14:43:43.091Z,-1.00
2023-02-04T14:46:10.088Z,-1.00
2023-02-04T14:48:37.044Z,-1.10
2023-02-04T14:51:04.872Z,-1.10
2023-02-04T14:53:31.901Z,-1.10
2023-02-04T14:55:58.764Z,-1.10
2023-02-04T14:58:27.823Z,-0.90
2023-02-04T15:00:55.297Z,-1.20
2023-02-04T15:03:22.557Z,-0.90
2023-02-04T15:05:49.384Z,-1.20
2023-02-04T15:08:16.327Z,-1.20
2023-02-04T15:10:43.238Z,-1.20
2023-02-04T15:13:10.211Z,-1.20
2023-02-04T15:15:37.444Z,-1.30
2023-02-04T15:18:04.559Z,-1.30
2023-02-04T15:20:31.733Z,-1.30
2023-02-04T15:23:00.658Z,-1.30
2023-02-04T15:25:27.995Z,-1.40
2023-02-04T15:27:54.973Z,-1.40
2023-02-04T15:30:21.860Z,-1.40
2023-02-04T15:32:48.875Z,-1.40
2023-02-04T15:35:15.900Z,-1.50
2023-02-04T15:37:42.726Z,-1.50
2023-02-04T15:40:11.198Z,-1.50
2023-02-04T15:42:38.478Z,-1.60
2023-02-04T15:45:06.565Z,-1.60
2023-02-04T15:47:33.418Z,-1.60
2023-02-04T15:50:00.420Z,-1.60
2023-02-04T15:52:29.225Z,-1.70
2023-02-04T15:54:56.245Z,-1.70
2023-02-04T15:57:23.252Z,-1.80
2023-02-04T15:59:50.125Z,-1.80
2023-02-04T16:02:17.330Z,-1.90
2023-02-04T16:04:45.500Z,-1.00
2023-02-04T16:07:12.635Z,-2.00
2023-02-04T16:09:39.583Z,-2.00
2023-02-04T16:12:07.202Z,-2.00
2023-02-04T16:14:34.040Z,-2.10
2023-02-04T16:17:01.833Z,-1.70
2023-02-04T16:19:29.180Z,-2.00
2023-02-04T16:21:56.356Z,-2.20
2023-02-04T16:24:24.280Z,-1.80
2023-02-04T16:26:51.324Z,-2.30
2023-02-04T16:29:18.236Z,-2.30
2023-02-04T16:31:45.141Z,-2.40
2023-02-04T16:34:11.996Z,-2.20
2023-02-04T16:36:38.874Z,-2.50
2023-02-04T16:39:05.847Z,-2.50
2023-02-04T16:41:32.802Z,-2.50
2023-02-04T16:44:00.255Z,-2.60
2023-02-04T16:46:28.752Z,-2.60
2023-02-04T16:48:55.601Z,-2.60
2023-02-04T16:51:22.426Z,-2.70
2023-02-04T16:53:50.519Z,-2.70
2023-02-04T16:56:17.472Z,-2.70
2023-02-04T16:58:44.896Z,-2.80
2023-02-04T17:01:12.501Z,-2.80
2023-02-04T17:03:39.932Z,-2.80
2023-02-04T17:06:07.078Z,-2.80
2023-02-04T17:08:33.966Z,-2.90
2023-02-04T17:11:19.284Z,-2.90
2023-02-04T17:13:46.107Z,-2.80
2023-02-04T17:16:13.020Z,-2.90
2023-02-04T17:18:39.937Z,-2.90
2023-02-04T17:21:07.042Z,-2.90
2023-02-04T17:23:35.454Z,-2.80
2023-02-04T17:26:04.508Z,-2.80
2023-02-04T17:28:31.429Z,-2.80
2023-02-04T17:30:58.400Z,-2.90
2023-02-04T17:33:25.602Z,-2.80
2023-02-04T17:35:52.970Z,-2.90
2023-02-04T17:38:19.890Z,-2.80
2023-02-04T17:40:46.771Z,-2.80
2023-02-04T17:43:13.859Z,-2.80
2023-02-04T17:45:40.712Z,-2.80
2023-02-04T17:48:07.795Z,-2.70
2023-02-04T17:53:04.230Z,-2.80
2023-02-04T17:55:33.940Z,-2.70
2023-02-04T17:58:07.757Z,-2.80
2023-02-04T18:00:37.049Z,-2.80
2023-02-04T18:03:05.885Z,-2.80
2023-02-04T18:05:45.665Z,-2.90
2023-02-04T18:08:21.363Z,-3.00
2023-02-04T18:10:50.292Z,-3.00
2023-02-04T18:13:35.316Z,-3.10
2023-02-04T18:16:25.266Z,-3.10
2023-02-04T18:18:58.069Z,-3.10
2023-02-04T18:21:31.274Z,-3.20
2023-02-04T18:24:14.422Z,-3.20
2023-02-04T18:26:54.165Z,-3.40
2023-02-04T18:29:32.973Z,-3.30
2023-02-04T18:32:09.018Z,-3.40
2023-02-04T18:34:38.894Z,-3.30
2023-02-04T18:37:27.143Z,-3.40
2023-02-04T18:40:00.785Z,-3.40
2023-02-04T18:42:27.802Z,-3.40
2023-02-04T18:44:55.112Z,-3.40
2023-02-04T18:47:33.497Z,-3.40
2023-02-04T18:50:02.222Z,-3.40
2023-02-04T18:52:36.825Z,-3.40
2023-02-04T18:55:20.054Z,-3.40
2023-02-04T18:57:46.900Z,-3.40
2023-02-04T19:00:32.829Z,-3.50
2023-02-04T19:03:14.596Z,-3.50
2023-02-04T19:05:49.632Z,-3.50
2023-02-04T19:08:22.720Z,-3.60
2023-02-04T19:10:51.447Z,-3.50
2023-02-04T19:13:39.706Z,-3.50
2023-02-04T19:16:27.359Z,-3.50
2023-02-04T19:18:55.273Z,-3.60
2023-02-04T19:23:50.858Z,-3.70
2023-02-04T19:26:34.358Z,-3.70
2023-02-04T19:29:21.304Z,-3.60
2023-02-04T19:31:49.281Z,-3.90
2023-02-04T19:34:27.579Z,-4.00
2023-02-04T19:36:55.573Z,-3.80
2023-02-04T19:39:32.762Z,-3.90
2023-02-04T19:41:59.748Z,-4.10
2023-02-04T19:44:48.195Z,-4.20
2023-02-04T19:47:20.825Z,-4.90
2023-02-04T19:49:47.676Z,-4.00
2023-02-04T19:52:36.467Z,-4.00
2023-02-04T19:55:18.223Z,-4.00
2023-02-04T19:57:48.160Z,-4.10
2023-02-04T20:00:38.283Z,-4.10
2023-02-04T20:03:18.358Z,-4.10
2023-02-04T20:05:45.226Z,-4.10
2023-02-04T20:08:30.261Z,-4.10
2023-02-04T20:10:58.194Z,-4.10
2023-02-04T20:13:27.073Z,-4.10
2023-02-04T20:15:58.077Z,-4.10
2023-02-04T20:18:28.354Z,-4.10
2023-02-04T20:20:55.166Z,-4.10
2023-02-04T20:23:28.737Z,-4.10
2023-02-04T20:25:56.011Z,-4.10
2023-02-04T20:28:38.583Z,-4.10
2023-02-04T20:31:27.383Z,-4.10
2023-02-04T20:33:59.512Z,-4.10
2023-02-04T20:39:16.436Z,-4.10
2023-02-04T20:41:43.551Z,-2.80
2023-02-04T20:44:37.988Z,-4.10
2023-02-04T20:47:19.894Z,-4.00
2023-02-04T20:49:57.805Z,-4.10
2023-02-04T20:52:40.735Z,-4.10
2023-02-04T20:55:34.901Z,-4.20
2023-02-04T20:58:08.184Z,-4.20
2023-02-04T21:00:38.736Z,-4.20
2023-02-04T21:03:35.858Z,-4.20
2023-02-04T21:06:14.203Z,-4.20
2023-02-04T21:08:44.067Z,-4.20
2023-02-04T21:11:11.355Z,-4.20
2023-02-04T21:13:38.949Z,-4.20
2023-02-04T21:16:08.784Z,-4.20
2023-02-04T21:18:35.819Z,-4.20
2023-02-04T21:21:08.189Z,-4.20
2023-02-04T21:23:36.695Z,-4.20
2023-02-04T21:26:04.069Z,-4.20
2023-02-04T21:28:32.324Z,-3.90
2023-02-04T21:31:00.465Z,-4.10
2023-02-04T21:33:27.443Z,-4.10
2023-02-04T21:35:54.770Z,-4.00
2023-02-04T21:38:21.785Z,-4.00
2023-02-04T21:40:48.616Z,-4.00
2023-02-04T21:43:15.574Z,-4.00
2023-02-04T21:45:42.462Z,-3.90
2023-02-04T21:48:09.301Z,-4.00
2023-02-04T21:50:38.500Z,-3.90
2023-02-04T21:53:07.433Z,-4.00
2023-02-04T21:58:02.472Z,-4.00
2023-02-04T22:00:29.832Z,-4.00
2023-02-04T22:02:56.994Z,-4.00
2023-02-04T22:05:25.343Z,-4.00
2023-02-04T22:07:52.217Z,-5.40
2023-02-04T22:10:25.538Z,-4.20
2023-02-04T22:12:52.757Z,-4.20
2023-02-04T22:15:24.161Z,-3.20
2023-02-04T22:17:52.754Z,-4.20
2023-02-04T22:20:20.981Z,-4.30
2023-02-04T22:22:48.745Z,-4.30
2023-02-04T22:25:18.287Z,-4.40
2023-02-04T22:27:45.604Z,-4.50
2023-02-04T22:30:15.807Z,-4.50
2023-02-04T22:32:46.449Z,-4.50
2023-02-04T22:35:15.318Z,-4.50
2023-02-04T22:37:42.848Z,-4.60
2023-02-04T22:40:11.820Z,-4.60
2023-02-04T22:42:39.048Z,-4.60
2023-02-04T22:45:06.532Z,-4.70
2023-02-04T22:47:34.404Z,-4.70
2023-02-04T22:50:01.345Z,-4.80
2023-02-04T22:52:28.526Z,-5.00
2023-02-04T22:54:55.640Z,-5.00
2023-02-04T22:57:23.762Z,-4.10
2023-02-04T22:59:51.791Z,-5.40
2023-02-04T23:02:18.779Z,-5.00
2023-02-04T23:04:46.012Z,-5.00
2023-02-04T23:07:13.875Z,-5.10
2023-02-04T23:09:40.771Z,-5.10
2023-02-04T23:12:13.976Z,-5.20
2023-02-04T23:14:48.647Z,-5.20
2023-02-04T23:17:18.117Z,-5.20
2023-02-04T23:19:45.582Z,-5.30
2023-02-04T23:22:14.118Z,-5.30
2023-02-04T23:24:41.727Z,-5.40
2023-02-04T23:27:11.614Z,-5.40
2023-02-04T23:29:40.198Z,-5.40
2023-02-04T23:32:07.493Z,-5.50
2023-02-04T23:34:35.410Z,-5.50
2023-02-04T23:37:04.489Z,-5.60
2023-02-04T23:39:31.765Z,-5.60
2023-02-04T23:41:59.059Z,-5.60
2023-02-04T23:44:27.097Z,-5.70
2023-02-04T23:46:54.192Z,-5.70
2023-02-04T23:49:22.273Z,-5.80
2023-02-04T23:51:50.332Z,-5.80
2023-02-04T23:54:17.581Z,-5.80
2023-02-04T23:56:45.072Z,-5.80
2023-02-04T23:59:12.964Z,-6.20
